createdAt,value
2022-08-07T00:02:40.525Z,55.94
2022-08-07T00:05:06.642Z,55.78
2022-08-07T00:07:40.207Z,56.45
2022-08-07T00:10:26.881Z,56.35
2022-08-07T00:13:00.998Z,56.87
2022-08-07T00:15:37.680Z,57.15
2022-08-07T00:18:18.941Z,57.28
2022-08-07T00:20:50.442Z,57.17
2022-08-07T00:23:21.422Z,57.18
2022-08-07T00:26:00.112Z,57.10
2022-08-07T00:28:34.261Z,57.22
2022-08-07T00:31:12.680Z,57.40
2022-08-07T00:33:47.743Z,57.58
2022-08-07T00:36:18.098Z,57.48
2022-08-07T00:38:48.828Z,57.83
2022-08-07T00:41:28.379Z,57.87
2022-08-07T00:44:01.496Z,57.96
2022-08-07T00:46:34.123Z,57.88
2022-08-07T00:49:04.230Z,58.03
2022-08-07T00:51:57.580Z,58.12
2022-08-07T00:54:24.197Z,58.52
2022-08-07T00:56:55.838Z,59.07
2022-08-07T00:59:35.355Z,59.06
2022-08-07T01:02:14.258Z,59.04
2022-08-07T01:04:58.197Z,59.07
2022-08-07T01:07:31.185Z,59.42
2022-08-07T01:10:06.873Z,59.62
2022-08-07T01:12:53.163Z,59.57
2022-08-07T01:15:36.081Z,59.59
2022-08-07T01:18:17.017Z,59.90
2022-08-07T01:20:57.459Z,60.15
2022-08-07T01:23:37.994Z,60.01
2022-08-07T01:26:12.103Z,60.36
2022-08-07T01:28:45.950Z,60.42
2022-08-07T01:31:17.905Z,60.62
2022-08-07T01:33:56.284Z,60.42
2022-08-07T01:36:33.522Z,60.45
2022-08-07T01:39:10.136Z,60.73
2022-08-07T01:42:07.382Z,60.67
2022-08-07T01:44:30.790Z,60.49
2022-08-07T01:47:14.613Z,60.81
2022-08-07T01:49:54.671Z,60.63
2022-08-07T01:52:26.876Z,60.46
2022-08-07T01:55:00.879Z,60.70
2022-08-07T01:58:01.142Z,61.03
2022-08-07T02:00:30.494Z,61.11
2022-08-07T02:03:11.962Z,61.27
2022-08-07T02:05:59.422Z,61.04
2022-08-07T02:08:35.570Z,61.31
2022-08-07T02:11:10.456Z,61.23
2022-08-07T02:14:02.666Z,61.67
2022-08-07T02:16:33.973Z,61.51
2022-08-07T02:20:04.936Z,61.78
2022-08-07T02:21:58.628Z,61.72
2022-08-07T02:24:30.848Z,61.98
2022-08-07T02:27:04.010Z,61.84
2022-08-07T02:29:36.850Z,62.25
2022-08-07T02:32:23.188Z,62.11
2022-08-07T02:34:54.993Z,62.37
2022-08-07T02:37:34.108Z,62.50
2022-08-07T02:40:29.922Z,62.07
2022-08-07T02:43:01.312Z,62.13
2022-08-07T02:45:58.395Z,62.09
2022-08-07T02:48:31.458Z,62.72
2022-08-07T02:51:06.766Z,62.71
2022-08-07T02:53:39.594Z,62.49
2022-08-07T02:56:21.006Z,62.96
2022-08-07T02:58:55.413Z,62.62
2022-08-07T03:01:35.017Z,62.63
2022-08-07T03:04:12.434Z,62.48
2022-08-07T03:06:45.950Z,62.61
2022-08-07T03:09:43.870Z,62.89
2022-08-07T03:12:22.591Z,63.16
2022-08-07T03:15:07.748Z,62.38
2022-08-07T03:17:52.822Z,62.97
2022-08-07T03:20:25.383Z,62.89
2022-08-07T03:22:56.208Z,62.97
2022-08-07T03:25:32.422Z,63.30
2022-08-07T03:28:38.082Z,63.61
2022-08-07T03:31:24.865Z,63.69
2022-08-07T03:33:59.236Z,63.51
2022-08-07T03:36:31.972Z,63.44
2022-08-07T03:39:06.803Z,63.74
2022-08-07T03:41:42.551Z,63.95
2022-08-07T03:44:31.727Z,63.55
2022-08-07T03:47:14.197Z,64.30
2022-08-07T03:49:47.956Z,64.17
2022-08-07T03:52:27.017Z,64.21
2022-08-07T03:55:06.166Z,64.22
2022-08-07T03:58:08.829Z,64.44
2022-08-07T04:00:33.628Z,64.62
2022-08-07T04:03:07.133Z,64.74
2022-08-07T04:05:42.191Z,64.77
2022-08-07T04:08:16.145Z,64.61
2022-08-07T04:10:54.586Z,64.44
2022-08-07T04:14:10.477Z,64.93
2022-08-07T04:16:32.586Z,64.41
2022-08-07T04:19:14.736Z,64.77
2022-08-07T04:21:58.851Z,64.93
2022-08-07T04:24:39.104Z,64.93
2022-08-07T04:27:20.246Z,64.67
2022-08-07T04:30:04.443Z,64.55
2022-08-07T04:32:40.481Z,64.67
2022-08-07T04:35:16.513Z,64.33
2022-08-07T04:38:03.470Z,64.30
2022-08-07T04:40:44.059Z,64.46
2022-08-07T04:44:11.344Z,64.28
2022-08-07T04:46:29.250Z,64.49
2022-08-07T04:49:17.768Z,64.13
2022-08-07T04:52:04.921Z,64.22
2022-08-07T04:54:41.955Z,63.82
2022-08-07T04:58:11.331Z,63.75
2022-08-07T05:00:30.365Z,63.04
2022-08-07T05:03:17.218Z,63.27
2022-08-07T05:06:19.821Z,62.87
2022-08-07T05:09:02.139Z,62.27
2022-08-07T05:11:58.610Z,61.63
2022-08-07T05:14:53.044Z,61.47
2022-08-07T05:17:52.900Z,60.93
2022-08-07T05:20:13.545Z,60.57
2022-08-07T05:22:47.536Z,60.11
2022-08-07T05:25:26.235Z,59.51
2022-08-07T05:28:20.255Z,59.13
2022-08-07T05:30:54.412Z,58.55
2022-08-07T05:33:26.118Z,58.75
2022-08-07T05:35:57.579Z,58.86
2022-08-07T05:38:59.663Z,58.77
2022-08-07T05:41:21.720Z,58.12
2022-08-07T05:44:08.369Z,57.86
2022-08-07T05:46:43.985Z,57.80
2022-08-07T05:49:14.693Z,57.61
2022-08-07T05:51:48.284Z,57.29
2022-08-07T05:54:31.008Z,57.18
2022-08-07T05:57:10.598Z,56.92
2022-08-07T05:59:57.200Z,56.49
2022-08-07T06:02:31.092Z,56.21
2022-08-07T06:05:06.203Z,56.12
2022-08-07T06:08:13.406Z,55.92
2022-08-07T06:10:27.673Z,55.55
2022-08-07T06:13:02.129Z,55.34
2022-08-07T06:15:42.545Z,55.40
2022-08-07T06:18:14.330Z,55.19
2022-08-07T06:20:50.496Z,54.80
2022-08-07T06:24:38.180Z,54.87
2022-08-07T06:26:30.197Z,54.46
2022-08-07T06:29:01.631Z,53.37
2022-08-07T06:31:47.100Z,53.14
2022-08-07T06:34:20.726Z,53.33
2022-08-07T06:36:52.080Z,52.35
2022-08-07T06:40:17.139Z,52.76
2022-08-07T06:42:19.254Z,52.24
2022-08-07T06:44:51.588Z,51.82
2022-08-07T06:47:21.722Z,51.07
2022-08-07T06:49:58.237Z,51.03
2022-08-07T06:52:35.957Z,50.85
2022-08-07T06:55:34.051Z,49.82
2022-08-07T06:58:04.561Z,49.86
2022-08-07T07:00:39.898Z,49.34
2022-08-07T07:03:13.831Z,49.23
2022-08-07T07:06:04.355Z,49.42
2022-08-07T07:08:39.857Z,48.35
2022-08-07T07:12:08.714Z,48.72
2022-08-07T07:14:09.905Z,48.26
2022-08-07T07:16:49.798Z,48.40
2022-08-07T07:19:57.605Z,49.31
2022-08-07T07:22:35.855Z,48.51
2022-08-07T07:26:31.498Z,48.42
2022-08-07T07:28:07.874Z,47.92
2022-08-07T07:31:01.111Z,47.94
2022-08-07T07:33:35.239Z,48.10
2022-08-07T07:36:12.791Z,47.60
2022-08-07T07:38:46.201Z,47.01
2022-08-07T07:41:21.332Z,46.83
2022-08-07T07:44:16.891Z,46.97
2022-08-07T07:46:57.272Z,46.22
2022-08-07T07:50:34.881Z,46.07
2022-08-07T07:52:28.568Z,46.64
2022-08-07T07:54:59.630Z,46.64
2022-08-07T07:57:50.278Z,46.27
2022-08-07T08:00:29.917Z,46.26
2022-08-07T08:03:08.452Z,46.09
2022-08-07T08:05:50.532Z,46.07
2022-08-07T08:08:35.670Z,44.97
2022-08-07T08:11:13.693Z,45.20
2022-08-07T08:13:55.028Z,44.69
2022-08-07T08:16:31.157Z,44.72
2022-08-07T08:19:17.769Z,44.19
2022-08-07T08:22:15.955Z,42.84
2022-08-07T08:25:18.837Z,42.64
2022-08-07T08:28:03.590Z,42.19
2022-08-07T08:30:42.521Z,42.80
2022-08-07T08:33:23.867Z,41.23
2022-08-07T08:35:55.919Z,40.48
2022-08-07T08:38:38.140Z,41.05
2022-08-07T08:41:19.951Z,40.59
2022-08-07T08:44:04.079Z,39.99
2022-08-07T08:46:44.940Z,40.28
2022-08-07T08:49:33.097Z,39.55
2022-08-07T08:52:16.556Z,40.46
2022-08-07T08:54:56.952Z,39.91
2022-08-07T08:57:36.193Z,39.45
2022-08-07T09:00:08.379Z,39.61
2022-08-07T09:02:55.610Z,39.44
2022-08-07T09:05:42.538Z,38.83
2022-08-07T09:08:28.442Z,37.21
2022-08-07T09:11:13.892Z,37.36
2022-08-07T09:14:08.747Z,36.96
2022-08-07T09:17:03.537Z,37.11
2022-08-07T09:19:52.041Z,37.34
2022-08-07T09:24:33.899Z,37.49
2022-08-07T09:25:41.063Z,37.84
2022-08-07T09:30:04.761Z,37.21
2022-08-07T09:31:26.409Z,37.64
2022-08-07T09:34:14.812Z,37.99
2022-08-07T09:37:01.149Z,37.72
2022-08-07T09:39:54.447Z,39.08
2022-08-07T09:42:42.888Z,38.59
2022-08-07T09:47:24.755Z,38.55
2022-08-07T09:48:43.920Z,39.54
2022-08-07T09:52:16.021Z,39.68
2022-08-07T09:54:36.409Z,39.90
2022-08-07T09:57:23.451Z,39.86
2022-08-07T10:00:04.634Z,39.64
2022-08-07T10:02:58.335Z,39.53
2022-08-07T10:06:17.756Z,39.49
2022-08-07T10:09:11.638Z,39.69
2022-08-07T10:12:15.137Z,38.95
2022-08-07T10:15:02.346Z,39.55
2022-08-07T10:18:01.370Z,39.39
2022-08-07T10:20:44.568Z,39.47
2022-08-07T10:24:06.304Z,39.66
2022-08-07T10:26:45.109Z,39.54
2022-08-07T10:29:51.404Z,38.51
2022-08-07T10:32:51.230Z,38.92
2022-08-07T10:35:55.699Z,38.05
2022-08-07T10:38:48.288Z,38.53
2022-08-07T10:41:51.559Z,38.04
2022-08-07T10:44:38.354Z,37.85
2022-08-07T10:47:31.106Z,37.40
2022-08-07T10:50:16.087Z,37.62
2022-08-07T10:52:56.688Z,37.29
2022-08-07T10:55:38.493Z,37.02
2022-08-07T10:58:32.224Z,37.21
2022-08-07T11:01:22.352Z,37.12
2022-08-07T11:04:16.485Z,36.87
2022-08-07T11:07:04.677Z,37.12
2022-08-07T11:10:08.970Z,37.24
2022-08-07T11:13:02.058Z,37.14
2022-08-07T11:15:37.248Z,36.98
2022-08-07T11:18:15.661Z,36.49
2022-08-07T11:20:55.658Z,37.03
2022-08-07T11:23:36.375Z,36.72
2022-08-07T11:26:14.421Z,38.59
2022-08-07T11:44:24.593Z,38.42
2022-08-07T11:47:05.762Z,37.83
2022-08-07T11:50:30.973Z,38.29
2022-08-07T11:53:06.104Z,36.30
2022-08-07T11:56:09.253Z,35.59
2022-08-07T11:58:50.446Z,34.30
2022-08-07T12:01:59.276Z,33.78
2022-08-07T12:04:41.297Z,33.94
2022-08-07T12:07:27.819Z,34.18
2022-08-07T12:10:14.872Z,34.04
2022-08-07T12:12:52.791Z,33.63
2022-08-07T12:15:46.185Z,33.64
2022-08-07T12:18:29.704Z,33.79
2022-08-07T12:21:20.966Z,32.18
2022-08-07T12:24:06.753Z,33.40
2022-08-07T12:26:49.187Z,33.54
2022-08-07T12:29:38.272Z,36.76
2022-08-07T12:32:18.654Z,38.43
2022-08-07T12:34:53.452Z,39.12
2022-08-07T12:38:09.822Z,39.73
2022-08-07T12:40:48.173Z,40.19
2022-08-07T12:44:02.315Z,40.92
2022-08-07T12:46:15.779Z,41.72
2022-08-07T12:49:09.763Z,42.18
2022-08-07T12:52:14.548Z,42.27
2022-08-07T12:55:03.761Z,42.56
2022-08-07T12:58:00.355Z,49.05
2022-08-07T13:00:35.993Z,52.28
2022-08-07T13:04:02.240Z,53.41
2022-08-07T13:06:36.552Z,53.69
2022-08-07T13:10:37.552Z,53.41
2022-08-07T13:12:49.896Z,52.10
2022-08-07T13:15:31.921Z,52.72
2022-08-07T13:18:26.784Z,52.01
2022-08-07T13:21:03.913Z,50.99
2022-08-07T13:24:00.887Z,50.82
2022-08-07T13:26:46.150Z,50.66
2022-08-07T13:29:21.763Z,50.84
2022-08-07T13:31:59.962Z,51.46
2022-08-07T13:34:48.609Z,51.62
2022-08-07T13:37:28.138Z,51.83
2022-08-07T13:40:35.644Z,51.71
2022-08-07T13:43:12.124Z,51.73
2022-08-07T13:46:11.069Z,51.55
2022-08-07T13:48:40.614Z,52.11
2022-08-07T13:51:27.657Z,51.81
2022-08-07T13:54:06.356Z,52.31
2022-08-07T13:56:40.947Z,51.79
2022-08-07T13:59:27.823Z,51.65
2022-08-07T14:02:08.464Z,50.89
2022-08-07T14:04:50.226Z,50.67
2022-08-07T14:07:28.663Z,50.45
2022-08-07T14:10:16.486Z,49.89
2022-08-07T14:12:55.715Z,49.48
2022-08-07T14:15:34.828Z,49.45
2022-08-07T14:18:15.711Z,49.54
2022-08-07T14:22:41.069Z,49.58
2022-08-07T14:24:02.324Z,49.66
2022-08-07T14:26:40.623Z,49.99
2022-08-07T14:30:05.195Z,49.57
2022-08-07T14:32:19.264Z,50.14
2022-08-07T14:34:52.523Z,50.29
2022-08-07T14:37:36.115Z,50.89
2022-08-07T14:40:17.259Z,50.80
2022-08-07T14:43:55.757Z,51.32
2022-08-07T14:48:48.557Z,51.97
2022-08-07T14:51:22.782Z,53.02
2022-08-07T14:54:30.730Z,52.98
2022-08-07T14:56:48.868Z,52.98
2022-08-07T15:00:03.462Z,53.23
2022-08-07T15:02:31.882Z,53.06
2022-08-07T15:05:20.331Z,52.44
2022-08-07T15:07:54.220Z,51.83
2022-08-07T15:10:26.891Z,51.92
2022-08-07T15:13:06.150Z,51.78
2022-08-07T15:15:42.158Z,51.17
2022-08-07T15:18:28.596Z,51.18
2022-08-07T15:21:43.929Z,51.05
2022-08-07T15:27:04.958Z,50.77
2022-08-07T15:30:09.275Z,50.92
2022-08-07T15:36:01.970Z,51.31
2022-08-07T15:38:30.426Z,50.81
2022-08-07T15:41:24.447Z,51.12
2022-08-07T15:44:04.308Z,51.25
2022-08-07T15:46:51.606Z,51.23
2022-08-07T15:50:04.792Z,51.70
2022-08-07T15:52:30.021Z,51.91
2022-08-07T15:55:08.941Z,51.98
2022-08-07T15:57:48.804Z,52.16
2022-08-07T16:00:22.786Z,52.55
2022-08-07T16:03:20.549Z,52.95
2022-08-07T16:05:53.828Z,53.31
2022-08-07T16:08:37.624Z,53.46
2022-08-07T16:11:25.451Z,53.84
2022-08-07T16:14:10.716Z,54.35
2022-08-07T16:16:57.524Z,54.69
2022-08-07T16:19:59.059Z,54.61
2022-08-07T16:22:55.301Z,54.44
2022-08-07T16:25:54.169Z,54.85
2022-08-07T16:30:08.295Z,54.72
2022-08-07T16:31:51.505Z,55.06
2022-08-07T16:34:39.405Z,54.03
2022-08-07T16:38:06.695Z,53.84
2022-08-07T16:41:01.443Z,53.31
2022-08-07T16:44:06.130Z,53.50
2022-08-07T16:47:16.634Z,53.80
2022-08-07T16:50:35.782Z,54.25
2022-08-07T16:53:55.479Z,54.60
2022-08-07T16:56:21.968Z,54.58
2022-08-07T16:59:10.712Z,54.84
2022-08-07T17:01:57.085Z,55.08
2022-08-07T17:04:51.070Z,55.09
2022-08-07T17:07:55.579Z,55.06
2022-08-07T17:10:34.279Z,55.13
2022-08-07T17:14:17.365Z,55.52
2022-08-07T17:16:55.850Z,55.77
2022-08-07T17:20:02.332Z,55.86
2022-08-07T17:22:37.665Z,56.92
2022-08-07T17:25:15.670Z,57.30
2022-08-07T17:27:56.093Z,57.85
2022-08-07T17:30:30.752Z,58.20
2022-08-07T17:33:39.038Z,58.65
2022-08-07T17:36:13.404Z,58.71
2022-08-07T17:38:58.131Z,58.87
2022-08-07T17:42:04.102Z,59.47
2022-08-07T17:44:45.401Z,58.97
2022-08-07T17:47:38.281Z,59.35
2022-08-07T17:50:19.374Z,59.62
2022-08-07T17:52:59.603Z,59.48
2022-08-07T17:56:00.097Z,59.77
2022-08-07T17:58:36.755Z,66.82
2022-08-07T18:01:20.916Z,67.90
2022-08-07T18:04:16.777Z,70.27
2022-08-07T18:07:19.263Z,74.27
2022-08-07T18:10:05.882Z,74.44
2022-08-07T18:13:09.910Z,74.43
2022-08-07T18:15:51.805Z,74.51
2022-08-07T18:18:46.131Z,76.22
2022-08-07T18:21:51.627Z,77.50
2022-08-07T18:24:33.704Z,78.69
2022-08-07T18:27:26.165Z,79.08
2022-08-07T18:30:32.765Z,79.30
2022-08-07T18:33:30.065Z,79.80
2022-08-07T18:36:15.842Z,79.55
2022-08-07T18:40:08.089Z,79.91
2022-08-07T18:42:04.399Z,80.28
2022-08-07T18:48:01.135Z,80.00
2022-08-07T18:50:49.863Z,81.55
2022-08-07T18:53:36.996Z,80.92
2022-08-07T18:56:17.719Z,81.10
2022-08-07T18:59:48.056Z,80.41
2022-08-07T19:02:19.934Z,80.98
2022-08-07T19:05:15.529Z,80.73
2022-08-07T19:07:58.615Z,81.50
2022-08-07T19:10:49.987Z,80.74
2022-08-07T19:13:27.859Z,80.92
2022-08-07T19:17:00.385Z,80.69
2022-08-07T19:19:00.907Z,81.06
2022-08-07T19:21:47.675Z,80.08
2022-08-07T19:24:32.164Z,79.91
2022-08-07T19:28:29.725Z,78.90
2022-08-07T19:31:03.752Z,79.25
2022-08-07T19:32:59.800Z,79.30
2022-08-07T19:35:33.736Z,77.01
2022-08-07T19:38:17.048Z,76.78
2022-08-07T19:40:51.498Z,76.68
2022-08-07T19:43:45.192Z,77.15
2022-08-07T19:46:26.712Z,77.08
2022-08-07T19:49:05.636Z,76.94
2022-08-07T19:51:50.701Z,77.42
2022-08-07T19:54:32.373Z,75.08
2022-08-07T19:58:02.349Z,75.54
2022-08-07T20:00:12.065Z,73.13
2022-08-07T20:03:04.105Z,74.29
2022-08-07T20:06:00.116Z,75.16
2022-08-07T20:08:34.560Z,75.68
2022-08-07T20:11:10.077Z,75.02
2022-08-07T20:13:46.018Z,74.99
2022-08-07T20:16:32.073Z,74.78
2022-08-07T20:19:10.607Z,73.93
2022-08-07T20:21:47.252Z,74.76
2022-08-07T20:24:24.163Z,74.56
2022-08-07T20:27:02.372Z,75.05
2022-08-07T20:29:48.338Z,75.08
2022-08-07T20:32:25.869Z,75.33
2022-08-07T20:34:59.711Z,74.52
2022-08-07T20:37:33.972Z,74.12
2022-08-07T20:40:32.613Z,74.52
2022-08-07T20:43:01.571Z,74.28
2022-08-07T20:46:28.477Z,74.64
2022-08-07T20:48:29.787Z,75.28
2022-08-07T20:51:03.508Z,75.43
2022-08-07T20:54:02.834Z,74.64
2022-08-07T20:56:32.207Z,74.00
2022-08-07T20:59:05.997Z,73.82
2022-08-07T21:01:58.476Z,72.75
2022-08-07T21:04:31.819Z,73.39
2022-08-07T21:07:03.986Z,73.09
2022-08-07T21:09:52.642Z,73.08
2022-08-07T21:12:35.861Z,73.55
2022-08-07T21:15:10.338Z,73.49
2022-08-07T21:18:02.189Z,72.76
2022-08-07T21:20:48.010Z,73.06
2022-08-07T21:23:30.283Z,73.53
2022-08-07T21:26:09.323Z,73.16
2022-08-07T21:28:50.881Z,72.99
2022-08-07T21:31:50.115Z,72.79
2022-08-07T21:34:26.720Z,72.96
2022-08-07T21:37:04.976Z,71.95
2022-08-07T21:39:51.842Z,71.54
2022-08-07T21:42:46.536Z,70.72
2022-08-07T21:46:08.429Z,70.29
2022-08-07T21:48:28.501Z,70.59
2022-08-07T21:51:19.525Z,70.02
2022-08-07T21:54:02.653Z,69.26
2022-08-07T21:56:49.207Z,69.41
2022-08-07T21:59:36.347Z,70.00
2022-08-07T22:02:35.551Z,70.25
2022-08-07T22:05:08.868Z,69.99
2022-08-07T22:07:58.762Z,70.07
2022-08-07T22:10:33.634Z,69.82
2022-08-07T22:13:12.662Z,70.85
2022-08-07T22:16:39.066Z,71.07
2022-08-07T22:18:54.108Z,70.99
2022-08-07T22:22:04.365Z,71.12
2022-08-07T22:24:33.038Z,70.87
2022-08-07T22:27:07.608Z,71.19
2022-08-07T22:29:48.312Z,71.20
2022-08-07T22:32:27.606Z,70.74
2022-08-07T22:35:02.519Z,70.90
2022-08-07T22:38:03.002Z,70.35
2022-08-07T22:40:44.069Z,70.59
2022-08-07T22:43:17.860Z,70.32
2022-08-07T22:46:21.503Z,70.56
2022-08-07T22:49:09.447Z,70.83
2022-08-07T22:52:02.292Z,70.40
2022-08-07T22:54:49.047Z,70.56
2022-08-07T22:57:45.705Z,70.70
2022-08-07T23:00:21.321Z,70.41
2022-08-07T23:03:04.015Z,70.00
2022-08-07T23:06:08.908Z,70.18
2022-08-07T23:08:55.961Z,70.66
2022-08-07T23:11:45.741Z,70.20
2022-08-07T23:14:36.261Z,70.68
2022-08-07T23:17:23.663Z,70.34
2022-08-07T23:20:51.270Z,70.34
2022-08-07T23:24:05.357Z,70.97
2022-08-07T23:26:23.456Z,70.87
2022-08-07T23:30:35.536Z,70.84
2022-08-07T23:34:20.231Z,71.19
2022-08-07T23:35:20.409Z,71.14
2022-08-07T23:38:19.490Z,71.20
2022-08-07T23:41:21.011Z,71.50
2022-08-07T23:44:29.938Z,72.08
2022-08-07T23:47:19.050Z,71.63
2022-08-07T23:50:04.009Z,71.80
2022-08-07T23:53:06.514Z,71.58
2022-08-07T23:55:51.880Z,72.04
2022-08-07T23:58:34.885Z,71.93
